Terminal Aerodrome Forecast
Issued by NWS

Home | Current Version | Previous Version | Graphics & Text | Print | Product List | Glossary On
Versions: 1 2 3 4 5 6 7 8 9 10 11 12 13 14 15
553
FTUS43 KOAX 161743
TAFCDR
TAF
KCDR 161743Z 1618/1718 01012KT P6SM BKN060 BKN200
     FM162200 03008KT P6SM SCT070
     FM170200 VRB05KT P6SM SKC
     FM171200 23007KT P6SM SCT100=

USA.gov is the U.S. government's official web portal to all federal, state and local government web resources and services.